sensor_id;sensor_type;location;lat;lon;timestamp;pressure;altitude;pressure_sealevel;temperature;humidity
10718;BME280;13513;42.700;23.124;2023-04-29T00:00:12;92952.68;;;7.07;58.98
10718;BME280;13513;42.700;23.124;2023-04-29T00:02:43;92955.78;;;6.95;59.67
10718;BME280;13513;42.700;23.124;2023-04-29T00:05:12;92947.69;;;6.96;59.14
10718;BME280;13513;42.700;23.124;2023-04-29T00:07:43;92949.93;;;7.02;58.23
10718;BME280;13513;42.700;23.124;2023-04-29T00:10:14;92950.22;;;7.03;58.03
10718;BME280;13513;42.700;23.124;2023-04-29T00:12:44;92951.64;;;7.08;59.32
10718;BME280;13513;42.700;23.124;2023-04-29T00:15:14;92952.40;;;7.06;57.91
10718;BME280;13513;42.700;23.124;2023-04-29T00:17:45;92954.44;;;7.04;58.65
10718;BME280;13513;42.700;23.124;2023-04-29T00:20:18;92950.37;;;6.99;59.06
10718;BME280;13513;42.700;23.124;2023-04-29T00:22:48;92953.41;;;6.84;59.61
10718;BME280;13513;42.700;23.124;2023-04-29T00:25:19;92955.16;;;6.72;60.68
10718;BME280;13513;42.700;23.124;2023-04-29T00:27:50;92954.53;;;6.68;61.28
10718;BME280;13513;42.700;23.124;2023-04-29T00:30:21;92954.91;;;6.62;61.74
10718;BME280;13513;42.700;23.124;2023-04-29T00:32:51;92958.34;;;6.54;63.05
10718;BME280;13513;42.700;23.124;2023-04-29T00:35:22;92955.14;;;6.43;64.00
10718;BME280;13513;42.700;23.124;2023-04-29T00:37:55;92958.58;;;6.25;65.57
10718;BME280;13513;42.700;23.124;2023-04-29T00:40:28;92957.50;;;6.06;67.44
10718;BME280;13513;42.700;23.124;2023-04-29T00:42:59;92957.72;;;6.04;68.16
10718;BME280;13513;42.700;23.124;2023-04-29T00:45:30;92957.69;;;5.95;69.16
10718;BME280;13513;42.700;23.124;2023-04-29T00:48:01;92955.45;;;5.99;69.28
10718;BME280;13513;42.700;23.124;2023-04-29T00:50:32;92952.59;;;5.91;70.26
10718;BME280;13513;42.700;23.124;2023-04-29T00:53:03;92953.30;;;5.80;71.19
10718;BME280;13513;42.700;23.124;2023-04-29T00:55:35;92953.33;;;5.65;71.70
10718;BME280;13513;42.700;23.124;2023-04-29T00:58:06;92944.91;;;5.72;71.61
10718;BME280;13513;42.700;23.124;2023-04-29T01:00:38;92952.88;;;5.83;71.48
10718;BME280;13513;42.700;23.124;2023-04-29T01:03:09;92942.56;;;5.88;71.68
10718;BME280;13513;42.700;23.124;2023-04-29T01:05:41;92938.98;;;5.92;71.62
10718;BME280;13513;42.700;23.124;2023-04-29T01:08:33;92937.24;;;5.95;71.92
10718;BME280;13513;42.700;23.124;2023-04-29T01:11:07;92928.42;;;5.98;71.35
10718;BME280;13513;42.700;23.124;2023-04-29T01:13:58;92924.20;;;5.97;70.98
10718;BME280;13513;42.700;23.124;2023-04-29T01:16:43;92931.78;;;5.96;70.50
10718;BME280;13513;42.700;23.124;2023-04-29T01:21:49;92923.62;;;6.04;69.55
10718;BME280;13513;42.700;23.124;2023-04-29T01:24:20;92921.36;;;5.99;69.49
10718;BME280;13513;42.700;23.124;2023-04-29T01:27:08;92921.43;;;6.01;69.78
10718;BME280;13513;42.700;23.124;2023-04-29T01:29:41;92923.98;;;5.99;69.35
10718;BME280;13513;42.700;23.124;2023-04-29T01:32:16;92918.63;;;5.78;70.56
10718;BME280;13513;42.700;23.124;2023-04-29T01:34:52;92912.07;;;5.78;71.12
10718;BME280;13513;42.700;23.124;2023-04-29T01:40:15;92909.52;;;5.72;70.86
10718;BME280;13513;42.700;23.124;2023-04-29T01:42:59;92911.75;;;5.68;71.22
10718;BME280;13513;42.700;23.124;2023-04-29T01:45:31;92914.31;;;5.66;70.94
10718;BME280;13513;42.700;23.124;2023-04-29T01:48:01;92912.57;;;5.69;69.84
10718;BME280;13513;42.700;23.124;2023-04-29T01:50:33;92912.57;;;5.69;69.84
10718;BME280;13513;42.700;23.124;2023-04-29T01:53:03;92915.41;;;5.67;70.92
10718;BME280;13513;42.700;23.124;2023-04-29T01:55:33;92915.41;;;5.67;70.92
10718;BME280;13513;42.700;23.124;2023-04-29T01:58:04;92908.06;;;5.76;70.24
10718;BME280;13513;42.700;23.124;2023-04-29T02:00:35;92917.52;;;5.77;70.35
10718;BME280;13513;42.700;23.124;2023-04-29T02:03:06;92915.12;;;5.66;71.85
10718;BME280;13513;42.700;23.124;2023-04-29T02:05:36;92916.22;;;5.68;72.68
10718;BME280;13513;42.700;23.124;2023-04-29T02:08:13;92906.87;;;5.63;72.64
10718;BME280;13513;42.700;23.124;2023-04-29T02:10:50;92924.36;;;5.69;73.03
10718;BME280;13513;42.700;23.124;2023-04-29T02:13:14;92928.16;;;5.73;72.73
10718;BME280;13513;42.700;23.124;2023-04-29T02:15:45;92919.93;;;5.78;71.48
10718;BME280;13513;42.700;23.124;2023-04-29T02:18:15;92919.93;;;5.78;71.48
10718;BME280;13513;42.700;23.124;2023-04-29T02:20:45;92919.58;;;5.75;71.55
10718;BME280;13513;42.700;23.124;2023-04-29T02:23:15;92917.67;;;5.73;71.49
10718;BME280;13513;42.700;23.124;2023-04-29T02:25:46;92917.67;;;5.73;71.49
10718;BME280;13513;42.700;23.124;2023-04-29T02:28:17;92912.92;;;5.72;71.94
10718;BME280;13513;42.700;23.124;2023-04-29T02:30:48;92906.91;;;5.72;72.77
10718;BME280;13513;42.700;23.124;2023-04-29T02:33:18;92905.06;;;5.72;73.20
10718;BME280;13513;42.700;23.124;2023-04-29T02:35:49;92906.97;;;5.74;73.45
10718;BME280;13513;42.700;23.124;2023-04-29T02:38:20;92905.73;;;5.77;72.84
10718;BME280;13513;42.700;23.124;2023-04-29T02:40:50;92898.80;;;5.64;73.76
10718;BME280;13513;42.700;23.124;2023-04-29T02:43:20;92896.67;;;5.46;74.96
10718;BME280;13513;42.700;23.124;2023-04-29T02:45:52;92899.82;;;5.54;74.75
10718;BME280;13513;42.700;23.124;2023-04-29T02:48:23;92896.84;;;5.60;74.58
10718;BME280;13513;42.700;23.124;2023-04-29T02:50:54;92901.48;;;5.58;74.47
10718;BME280;13513;42.700;23.124;2023-04-29T02:53:25;92901.48;;;5.58;74.47
10718;BME280;13513;42.700;23.124;2023-04-29T02:55:56;92910.88;;;5.56;75.81
10718;BME280;13513;42.700;23.124;2023-04-29T02:58:27;92915.40;;;5.58;75.40
10718;BME280;13513;42.700;23.124;2023-04-29T03:00:58;92921.42;;;5.50;76.14
10718;BME280;13513;42.700;23.124;2023-04-29T03:03:29;92923.97;;;5.47;76.09
10718;BME280;13513;42.700;23.124;2023-04-29T03:06:00;92919.81;;;5.40;76.61
10718;BME280;13513;42.700;23.124;2023-04-29T03:08:30;92922.80;;;5.43;76.36
10718;BME280;13513;42.700;23.124;2023-04-29T03:11:01;92930.66;;;5.43;76.36
10718;BME280;13513;42.700;23.124;2023-04-29T03:13:32;92914.61;;;5.33;77.74
10718;BME280;13513;42.700;23.124;2023-04-29T03:16:03;92937.70;;;5.18;79.06
10718;BME280;13513;42.700;23.124;2023-04-29T03:18:34;92937.70;;;5.18;79.06
10718;BME280;13513;42.700;23.124;2023-04-29T03:21:05;92941.73;;;5.21;79.12
10718;BME280;13513;42.700;23.124;2023-04-29T03:23:36;92950.01;;;5.18;79.57
10718;BME280;13513;42.700;23.124;2023-04-29T03:26:05;92961.23;;;5.09;79.47
10718;BME280;13513;42.700;23.124;2023-04-29T03:28:36;92959.85;;;4.76;80.66
10718;BME280;13513;42.700;23.124;2023-04-29T03:31:07;92964.61;;;4.70;82.89
10718;BME280;13513;42.700;23.124;2023-04-29T03:33:38;92959.58;;;4.68;83.81
10718;BME280;13513;42.700;23.124;2023-04-29T03:36:08;92962.22;;;4.84;83.70
10718;BME280;13513;42.700;23.124;2023-04-29T03:38:38;92952.59;;;4.93;83.54
10718;BME280;13513;42.700;23.124;2023-04-29T03:41:09;92952.05;;;5.00;83.84
10718;BME280;13513;42.700;23.124;2023-04-29T03:43:41;92937.88;;;5.08;83.91
10718;BME280;13513;42.700;23.124;2023-04-29T03:46:11;92945.05;;;5.19;83.77
10718;BME280;13513;42.700;23.124;2023-04-29T03:48:42;92940.02;;;5.33;83.29
10718;BME280;13513;42.700;23.124;2023-04-29T03:51:13;92947.22;;;5.37;82.73
10718;BME280;13513;42.700;23.124;2023-04-29T03:53:43;92954.70;;;5.58;84.25
10718;BME280;13513;42.700;23.124;2023-04-29T03:56:14;92954.70;;;5.58;84.25
10718;BME280;13513;42.700;23.124;2023-04-29T03:58:45;92956.09;;;5.70;82.97
10718;BME280;13513;42.700;23.124;2023-04-29T04:01:15;92965.95;;;5.74;83.08
10718;BME280;13513;42.700;23.124;2023-04-29T04:03:46;92967.72;;;5.80;82.85
10718;BME280;13513;42.700;23.124;2023-04-29T04:06:18;92963.96;;;5.85;81.44
10718;BME280;13513;42.700;23.124;2023-04-29T04:08:49;92963.11;;;5.67;81.01
10718;BME280;13513;42.700;23.124;2023-04-29T04:11:19;92957.87;;;5.76;81.57
10718;BME280;13513;42.700;23.124;2023-04-29T04:13:50;92957.41;;;5.94;82.07
10718;BME280;13513;42.700;23.124;2023-04-29T04:16:21;92958.44;;;6.20;82.00
10718;BME280;13513;42.700;23.124;2023-04-29T04:18:52;92962.80;;;6.44;80.55
10718;BME280;13513;42.700;23.124;2023-04-29T04:21:24;92964.88;;;6.63;79.49
10718;BME280;13513;42.700;23.124;2023-04-29T04:23:54;92955.88;;;6.79;78.79
10718;BME280;13513;42.700;23.124;2023-04-29T04:26:25;92950.16;;;7.00;77.96
10718;BME280;13513;42.700;23.124;2023-04-29T04:28:56;92938.11;;;7.02;75.53
10718;BME280;13513;42.700;23.124;2023-04-29T04:31:27;92942.37;;;6.94;78.70
10718;BME280;13513;42.700;23.124;2023-04-29T04:33:57;92950.09;;;6.98;79.70
10718;BME280;13513;42.700;23.124;2023-04-29T04:36:30;92952.52;;;7.11;82.43
10718;BME280;13513;42.700;23.124;2023-04-29T04:39:01;92956.47;;;7.22;82.79
10718;BME280;13513;42.700;23.124;2023-04-29T04:41:32;92959.87;;;7.32;81.72
10718;BME280;13513;42.700;23.124;2023-04-29T04:44:03;92955.30;;;7.48;79.88
10718;BME280;13513;42.700;23.124;2023-04-29T04:46:32;92953.87;;;7.66;78.92
10718;BME280;13513;42.700;23.124;2023-04-29T04:49:02;92942.84;;;7.78;78.82
10718;BME280;13513;42.700;23.124;2023-04-29T04:51:34;92946.44;;;7.86;78.18
10718;BME280;13513;42.700;23.124;2023-04-29T04:54:05;92949.58;;;7.97;76.78
10718;BME280;13513;42.700;23.124;2023-04-29T04:56:35;92939.92;;;8.11;77.04
10718;BME280;13513;42.700;23.124;2023-04-29T04:59:06;92940.33;;;8.29;77.65
10718;BME280;13513;42.700;23.124;2023-04-29T05:01:36;92930.89;;;8.45;75.66
10718;BME280;13513;42.700;23.124;2023-04-29T05:04:07;92936.44;;;8.46;74.64
10718;BME280;13513;42.700;23.124;2023-04-29T05:06:38;92934.68;;;8.77;72.75
10718;BME280;13513;42.700;23.124;2023-04-29T05:09:09;92948.34;;;9.02;72.15
10718;BME280;13513;42.700;23.124;2023-04-29T05:11:40;92939.98;;;9.21;71.92
10718;BME280;13513;42.700;23.124;2023-04-29T05:14:11;92937.06;;;9.34;72.86
10718;BME280;13513;42.700;23.124;2023-04-29T05:16:41;92930.34;;;9.43;72.13
10718;BME280;13513;42.700;23.124;2023-04-29T05:19:12;92928.13;;;9.52;69.07
10718;BME280;13513;42.700;23.124;2023-04-29T05:21:43;92919.98;;;9.70;68.79
10718;BME280;13513;42.700;23.124;2023-04-29T05:24:14;92923.50;;;9.75;68.86
10718;BME280;13513;42.700;23.124;2023-04-29T05:26:45;92920.12;;;9.80;67.36
10718;BME280;13513;42.700;23.124;2023-04-29T05:29:15;92921.77;;;9.83;64.68
10718;BME280;13513;42.700;23.124;2023-04-29T05:31:46;92911.59;;;10.08;63.42
10718;BME280;13513;42.700;23.124;2023-04-29T05:34:17;92910.92;;;10.37;63.01
10718;BME280;13513;42.700;23.124;2023-04-29T05:36:48;92916.42;;;10.54;60.11
10718;BME280;13513;42.700;23.124;2023-04-29T05:39:20;92922.09;;;10.63;59.35
10718;BME280;13513;42.700;23.124;2023-04-29T05:41:50;92926.34;;;10.90;58.94
10718;BME280;13513;42.700;23.124;2023-04-29T05:44:21;92921.10;;;11.17;59.02
10718;BME280;13513;42.700;23.124;2023-04-29T05:46:57;92927.30;;;11.30;58.07
10718;BME280;13513;42.700;23.124;2023-04-29T05:49:27;92927.25;;;11.54;55.12
10718;BME280;13513;42.700;23.124;2023-04-29T05:51:58;92923.34;;;11.59;54.67
10718;BME280;13513;42.700;23.124;2023-04-29T05:54:29;92926.05;;;11.95;52.71
10718;BME280;13513;42.700;23.124;2023-04-29T05:57:00;92922.10;;;12.45;50.96
10718;BME280;13513;42.700;23.124;2023-04-29T05:59:33;92927.30;;;12.76;49.64
10718;BME280;13513;42.700;23.124;2023-04-29T06:02:04;92921.84;;;12.98;48.37
10718;BME280;13513;42.700;23.124;2023-04-29T06:04:35;92921.38;;;13.18;48.76
10718;BME280;13513;42.700;23.124;2023-04-29T06:07:06;92916.41;;;13.62;47.34
10718;BME280;13513;42.700;23.124;2023-04-29T06:09:37;92915.34;;;14.00;44.84
10718;BME280;13513;42.700;23.124;2023-04-29T06:12:07;92914.01;;;13.70;45.03
10718;BME280;13513;42.700;23.124;2023-04-29T06:14:37;92911.36;;;13.98;45.65
10718;BME280;13513;42.700;23.124;2023-04-29T06:17:09;92907.30;;;14.60;46.11
10718;BME280;13513;42.700;23.124;2023-04-29T06:19:40;92908.02;;;14.83;42.56
10718;BME280;13513;42.700;23.124;2023-04-29T06:22:11;92912.87;;;14.69;44.49
10718;BME280;13513;42.700;23.124;2023-04-29T06:24:41;92908.02;;;14.83;45.15
10718;BME280;13513;42.700;23.124;2023-04-29T06:27:12;92912.07;;;14.61;45.19
10718;BME280;13513;42.700;23.124;2023-04-29T06:29:43;92917.22;;;15.13;43.47
10718;BME280;13513;42.700;23.124;2023-04-29T06:32:14;92918.70;;;15.37;43.02
10718;BME280;13513;42.700;23.124;2023-04-29T06:34:45;92914.48;;;15.23;42.56
10718;BME280;13513;42.700;23.124;2023-04-29T06:37:16;92919.19;;;14.83;43.51
10718;BME280;13513;42.700;23.124;2023-04-29T06:39:46;92922.64;;;14.86;43.76
10718;BME280;13513;42.700;23.124;2023-04-29T06:42:17;92913.37;;;14.71;42.65
10718;BME280;13513;42.700;23.124;2023-04-29T06:44:48;92913.98;;;14.55;43.40
10718;BME280;13513;42.700;23.124;2023-04-29T06:47:20;92917.41;;;15.27;43.12
10718;BME280;13513;42.700;23.124;2023-04-29T06:49:50;92914.72;;;15.78;41.37
10718;BME280;13513;42.700;23.124;2023-04-29T06:52:21;92917.11;;;15.33;42.55
10718;BME280;13513;42.700;23.124;2023-04-29T06:54:51;92921.14;;;15.23;42.10
10718;BME280;13513;42.700;23.124;2023-04-29T06:57:22;92913.06;;;15.43;42.30
10718;BME280;13513;42.700;23.124;2023-04-29T06:59:53;92914.13;;;16.17;42.42
10718;BME280;13513;42.700;23.124;2023-04-29T07:02:24;92918.44;;;17.17;41.42
10718;BME280;13513;42.700;23.124;2023-04-29T07:04:54;92922.83;;;17.87;38.22
10718;BME280;13513;42.700;23.124;2023-04-29T07:07:25;92917.75;;;17.51;37.11
10718;BME280;13513;42.700;23.124;2023-04-29T07:09:56;92917.77;;;17.86;37.27
10718;BME280;13513;42.700;23.124;2023-04-29T07:12:27;92914.82;;;18.22;37.20
10718;BME280;13513;42.700;23.124;2023-04-29T07:14:58;92912.41;;;17.70;37.27
10718;BME280;13513;42.700;23.124;2023-04-29T07:17:30;92904.08;;;17.32;37.37
10718;BME280;13513;42.700;23.124;2023-04-29T07:20:01;92907.32;;;17.29;37.65
10718;BME280;13513;42.700;23.124;2023-04-29T07:22:33;92902.02;;;18.19;37.20
10718;BME280;13513;42.700;23.124;2023-04-29T07:25:04;92897.41;;;18.40;37.15
10718;BME280;13513;42.700;23.124;2023-04-29T07:27:37;92905.69;;;19.27;35.07
10718;BME280;13513;42.700;23.124;2023-04-29T07:30:09;92907.63;;;17.27;37.06
10718;BME280;13513;42.700;23.124;2023-04-29T07:32:40;92902.65;;;18.13;37.08
10718;BME280;13513;42.700;23.124;2023-04-29T07:35:10;92902.81;;;17.69;36.54
10718;BME280;13513;42.700;23.124;2023-04-29T07:37:41;92901.16;;;16.89;38.14
10718;BME280;13513;42.700;23.124;2023-04-29T07:40:12;92901.89;;;17.57;38.55
10718;BME280;13513;42.700;23.124;2023-04-29T07:42:45;92901.59;;;18.28;37.79
10718;BME280;13513;42.700;23.124;2023-04-29T07:45:18;92886.19;;;19.24;36.70
10718;BME280;13513;42.700;23.124;2023-04-29T07:47:49;92892.73;;;19.92;34.96
10718;BME280;13513;42.700;23.124;2023-04-29T07:50:20;92897.27;;;20.49;33.98
10718;BME280;13513;42.700;23.124;2023-04-29T07:52:51;92901.82;;;21.01;33.83
10718;BME280;13513;42.700;23.124;2023-04-29T07:55:22;92893.92;;;20.74;32.44
10718;BME280;13513;42.700;23.124;2023-04-29T07:57:52;92892.13;;;20.61;33.86
10718;BME280;13513;42.700;23.124;2023-04-29T08:00:23;92893.62;;;20.12;32.18
10718;BME280;13513;42.700;23.124;2023-04-29T08:02:54;92891.87;;;19.20;33.83
10718;BME280;13513;42.700;23.124;2023-04-29T08:05:25;92892.77;;;19.29;34.07
10718;BME280;13513;42.700;23.124;2023-04-29T08:07:55;92897.30;;;19.31;35.29
10718;BME280;13513;42.700;23.124;2023-04-29T08:10:26;92889.09;;;18.98;34.46
10718;BME280;13513;42.700;23.124;2023-04-29T08:12:57;92888.09;;;18.38;35.65
10718;BME280;13513;42.700;23.124;2023-04-29T08:15:26;92895.19;;;16.97;37.47
10718;BME280;13513;42.700;23.124;2023-04-29T08:17:56;92883.23;;;16.68;39.37
10718;BME280;13513;42.700;23.124;2023-04-29T08:20:28;92874.70;;;16.69;40.00
10718;BME280;13513;42.700;23.124;2023-04-29T08:22:59;92875.52;;;16.41;39.33
10718;BME280;13513;42.700;23.124;2023-04-29T08:25:30;92879.86;;;16.03;40.56
10718;BME280;13513;42.700;23.124;2023-04-29T08:28:00;92878.48;;;15.38;42.37
10718;BME280;13513;42.700;23.124;2023-04-29T08:30:32;92880.10;;;15.32;41.08
10718;BME280;13513;42.700;23.124;2023-04-29T08:33:03;92875.83;;;14.80;42.47
10718;BME280;13513;42.700;23.124;2023-04-29T08:35:38;92874.64;;;14.50;43.59
10718;BME280;13513;42.700;23.124;2023-04-29T08:38:11;92875.92;;;14.65;44.32
10718;BME280;13513;42.700;23.124;2023-04-29T08:40:45;92879.47;;;14.99;45.08
10718;BME280;13513;42.700;23.124;2023-04-29T08:43:16;92883.88;;;15.23;43.16
10718;BME280;13513;42.700;23.124;2023-04-29T08:45:48;92886.99;;;15.43;43.44
10718;BME280;13513;42.700;23.124;2023-04-29T08:48:19;92883.77;;;15.48;41.74
10718;BME280;13513;42.700;23.124;2023-04-29T08:50:50;92880.98;;;15.61;42.80
10718;BME280;13513;42.700;23.124;2023-04-29T08:53:21;92876.52;;;15.90;43.63
10718;BME280;13513;42.700;23.124;2023-04-29T08:55:53;92879.00;;;16.88;40.62
10718;BME280;13513;42.700;23.124;2023-04-29T08:58:28;92882.26;;;17.48;38.52
10718;BME280;13513;42.700;23.124;2023-04-29T09:00:58;92876.19;;;17.96;39.71
10718;BME280;13513;42.700;23.124;2023-04-29T09:06:20;92872.30;;;21.10;33.64
10718;BME280;13513;42.700;23.124;2023-04-29T09:08:51;92874.52;;;22.06;30.50
10718;BME280;13513;42.700;23.124;2023-04-29T09:11:21;92871.45;;;21.93;31.12
10718;BME280;13513;42.700;23.124;2023-04-29T09:13:53;92864.48;;;22.75;30.76
10718;BME280;13513;42.700;23.124;2023-04-29T09:16:23;92869.08;;;23.12;29.90
10718;BME280;13513;42.700;23.124;2023-04-29T09:18:54;92862.17;;;24.31;30.24
10718;BME280;13513;42.700;23.124;2023-04-29T09:21:28;92863.92;;;24.00;28.62
10718;BME280;13513;42.700;23.124;2023-04-29T09:24:02;92868.56;;;23.18;30.21
10718;BME280;13513;42.700;23.124;2023-04-29T09:26:45;92865.36;;;22.64;30.57
10718;BME280;13513;42.700;23.124;2023-04-29T09:29:13;92859.95;;;22.16;31.05
10718;BME280;13513;42.700;23.124;2023-04-29T09:31:45;92867.65;;;21.77;30.66
10718;BME280;13513;42.700;23.124;2023-04-29T09:34:16;92858.95;;;21.80;31.59
10718;BME280;13513;42.700;23.124;2023-04-29T09:36:48;92856.70;;;20.70;32.11
10718;BME280;13513;42.700;23.124;2023-04-29T09:39:20;92849.21;;;20.28;33.19
10718;BME280;13513;42.700;23.124;2023-04-29T09:41:56;92845.78;;;19.81;33.93
10718;BME280;13513;42.700;23.124;2023-04-29T09:44:35;92840.86;;;19.86;34.73
10718;BME280;13513;42.700;23.124;2023-04-29T09:47:07;92838.44;;;19.26;35.24
10718;BME280;13513;42.700;23.124;2023-04-29T09:49:41;92835.83;;;18.83;36.81
10718;BME280;13513;42.700;23.124;2023-04-29T09:52:14;92836.84;;;17.99;36.77
10718;BME280;13513;42.700;23.124;2023-04-29T09:54:45;92832.41;;;17.39;36.61
10718;BME280;13513;42.700;23.124;2023-04-29T09:57:16;92834.97;;;17.28;37.56
10718;BME280;13513;42.700;23.124;2023-04-29T09:59:47;92827.06;;;17.60;36.54
10718;BME280;13513;42.700;23.124;2023-04-29T10:02:18;92824.11;;;17.59;37.62
10718;BME280;13513;42.700;23.124;2023-04-29T10:04:53;92826.45;;;17.81;35.12
10718;BME280;13513;42.700;23.124;2023-04-29T10:07:24;92810.84;;;17.86;36.39
10718;BME280;13513;42.700;23.124;2023-04-29T10:09:56;92813.48;;;17.72;37.01
10718;BME280;13513;42.700;23.124;2023-04-29T10:12:27;92814.72;;;17.61;38.30
10718;BME280;13513;42.700;23.124;2023-04-29T10:15:10;92818.48;;;17.60;36.19
10718;BME280;13513;42.700;23.124;2023-04-29T10:18:13;92807.40;;;17.85;37.58
10718;BME280;13513;42.700;23.124;2023-04-29T10:20:42;92802.48;;;18.22;37.20
10718;BME280;13513;42.700;23.124;2023-04-29T10:23:14;92802.95;;;18.80;37.75
10718;BME280;13513;42.700;23.124;2023-04-29T10:25:46;92799.50;;;19.31;36.41
10718;BME280;13513;42.700;23.124;2023-04-29T10:28:19;92805.09;;;19.32;34.23
10718;BME280;13513;42.700;23.124;2023-04-29T10:30:55;92798.52;;;19.14;35.66
10718;BME280;13513;42.700;23.124;2023-04-29T10:33:32;92801.82;;;19.22;36.30
10718;BME280;13513;42.700;23.124;2023-04-29T10:36:04;92804.46;;;18.59;35.94
10718;BME280;13513;42.700;23.124;2023-04-29T10:38:45;92810.74;;;18.23;37.78
10718;BME280;13513;42.700;23.124;2023-04-29T10:41:29;92799.75;;;18.24;37.10
10718;BME280;13513;42.700;23.124;2023-04-29T10:44:01;92796.52;;;18.25;37.08
10718;BME280;13513;42.700;23.124;2023-04-29T10:46:31;92799.94;;;18.57;36.58
10718;BME280;13513;42.700;23.124;2023-04-29T10:49:02;92803.35;;;18.87;35.41
10718;BME280;13513;42.700;23.124;2023-04-29T10:51:41;92801.89;;;18.68;34.29
10718;BME280;13513;42.700;23.124;2023-04-29T10:54:13;92803.42;;;19.09;36.86
10718;BME280;13513;42.700;23.124;2023-04-29T10:56:52;92800.33;;;19.29;37.43
10718;BME280;13513;42.700;23.124;2023-04-29T10:59:46;92794.61;;;19.33;34.87
10718;BME280;13513;42.700;23.124;2023-04-29T11:01:55;92791.41;;;19.45;35.83
10718;BME280;13513;42.700;23.124;2023-04-29T11:04:26;92786.09;;;19.42;36.51
10718;BME280;13513;42.700;23.124;2023-04-29T11:06:58;92788.91;;;19.48;36.42
10718;BME280;13513;42.700;23.124;2023-04-29T11:09:31;92784.40;;;19.57;32.35
10718;BME280;13513;42.700;23.124;2023-04-29T11:12:04;92783.84;;;19.22;33.20
10718;BME280;13513;42.700;23.124;2023-04-29T11:14:41;92787.05;;;18.86;33.59
10718;BME280;13513;42.700;23.124;2023-04-29T11:17:16;92780.58;;;18.33;35.47
10718;BME280;13513;42.700;23.124;2023-04-29T11:19:53;92781.42;;;18.61;34.90
10718;BME280;13513;42.700;23.124;2023-04-29T11:22:25;92780.79;;;18.23;34.78
10718;BME280;13513;42.700;23.124;2023-04-29T11:25:00;92779.39;;;18.12;35.36
10718;BME280;13513;42.700;23.124;2023-04-29T11:27:35;92781.47;;;17.99;36.28
10718;BME280;13513;42.700;23.124;2023-04-29T11:30:11;92780.38;;;17.87;36.87
10718;BME280;13513;42.700;23.124;2023-04-29T11:32:42;92783.50;;;17.75;35.12
10718;BME280;13513;42.700;23.124;2023-04-29T11:35:15;92785.58;;;17.94;35.68
10718;BME280;13513;42.700;23.124;2023-04-29T11:37:46;92782.91;;;18.24;34.73
10718;BME280;13513;42.700;23.124;2023-04-29T11:40:17;92782.11;;;18.66;33.46
10718;BME280;13513;42.700;23.124;2023-04-29T11:42:49;92776.53;;;18.76;32.49
10718;BME280;13513;42.700;23.124;2023-04-29T11:45:20;92777.39;;;18.74;31.93
10718;BME280;13513;42.700;23.124;2023-04-29T11:47:49;92780.56;;;18.49;31.83
10718;BME280;13513;42.700;23.124;2023-04-29T11:50:22;92772.09;;;18.72;32.32
10718;BME280;13513;42.700;23.124;2023-04-29T11:52:52;92773.69;;;18.97;33.11
10718;BME280;13513;42.700;23.124;2023-04-29T11:55:23;92769.41;;;19.10;32.04
10718;BME280;13513;42.700;23.124;2023-04-29T11:57:54;92769.15;;;18.71;30.74
10718;BME280;13513;42.700;23.124;2023-04-29T12:00:25;92771.09;;;18.11;33.92
10718;BME280;13513;42.700;23.124;2023-04-29T12:02:56;92771.39;;;17.96;32.30
10718;BME280;13513;42.700;23.124;2023-04-29T12:05:28;92757.38;;;18.15;32.29
10718;BME280;13513;42.700;23.124;2023-04-29T12:07:59;92761.20;;;18.12;33.87
10718;BME280;13513;42.700;23.124;2023-04-29T12:10:30;92767.64;;;17.81;33.63
10718;BME280;13513;42.700;23.124;2023-04-29T12:13:00;92766.87;;;17.94;33.73
10718;BME280;13513;42.700;23.124;2023-04-29T12:15:32;92758.45;;;18.01;34.60
10718;BME280;13513;42.700;23.124;2023-04-29T12:18:03;92758.16;;;18.02;33.41
10718;BME280;13513;42.700;23.124;2023-04-29T12:20:34;92752.14;;;18.24;33.42
10718;BME280;13513;42.700;23.124;2023-04-29T12:23:14;92753.86;;;18.04;34.30
10718;BME280;13513;42.700;23.124;2023-04-29T12:25:55;92757.45;;;17.67;33.78
10718;BME280;13513;42.700;23.124;2023-04-29T12:28:27;92749.90;;;17.72;33.88
10718;BME280;13513;42.700;23.124;2023-04-29T12:30:57;92752.08;;;17.35;35.91
10718;BME280;13513;42.700;23.124;2023-04-29T12:33:28;92747.54;;;17.52;32.16
10718;BME280;13513;42.700;23.124;2023-04-29T12:35:58;92750.73;;;17.35;33.43
10718;BME280;13513;42.700;23.124;2023-04-29T12:38:30;92749.46;;;17.30;33.13
10718;BME280;13513;42.700;23.124;2023-04-29T12:41:00;92748.79;;;17.22;33.14
10718;BME280;13513;42.700;23.124;2023-04-29T12:43:31;92743.02;;;17.15;33.47
10718;BME280;13513;42.700;23.124;2023-04-29T12:46:09;92743.28;;;16.79;33.59
10718;BME280;13513;42.700;23.124;2023-04-29T12:48:36;92746.52;;;16.76;32.96
10718;BME280;13513;42.700;23.124;2023-04-29T12:51:10;92747.65;;;16.91;33.02
10718;BME280;13513;42.700;23.124;2023-04-29T12:53:41;92747.77;;;17.02;33.74
10718;BME280;13513;42.700;23.124;2023-04-29T12:56:12;92746.39;;;16.86;33.15
10718;BME280;13513;42.700;23.124;2023-04-29T12:58:43;92746.39;;;16.86;33.81
10718;BME280;13513;42.700;23.124;2023-04-29T13:01:13;92750.84;;;16.93;33.62
10718;BME280;13513;42.700;23.124;2023-04-29T13:03:43;92744.80;;;17.04;34.52
10718;BME280;13513;42.700;23.124;2023-04-29T13:06:14;92739.56;;;16.78;33.57
10718;BME280;13513;42.700;23.124;2023-04-29T13:08:45;92737.48;;;17.12;32.97
10718;BME280;13513;42.700;23.124;2023-04-29T13:11:17;92743.41;;;16.90;34.49
10718;BME280;13513;42.700;23.124;2023-04-29T13:13:48;92734.78;;;16.96;35.03
10718;BME280;13513;42.700;23.124;2023-04-29T13:16:19;92734.99;;;17.18;33.68
10718;BME280;13513;42.700;23.124;2023-04-29T13:18:49;92727.59;;;17.47;34.13
10718;BME280;13513;42.700;23.124;2023-04-29T13:21:21;92727.77;;;17.53;33.43
10718;BME280;13513;42.700;23.124;2023-04-29T13:23:53;92718.47;;;17.50;33.14
10718;BME280;13513;42.700;23.124;2023-04-29T13:26:23;92717.00;;;17.42;33.23